Time;durP1;ratioP1;P1;durP2;ratioP2;P2;SDS_P1;SDS_P2;PMS_P1;PMS_P2;Temp;Humidity;BMP_temperature;BMP_pressure;BME280_temperature;BME280_humidity;BME280_pressure;Samples;Min_cycle;Max_cycle;Signal;HPM_P1;HPM_P2
2022/03/03 00:02:02;;;;;;;5.23;4.83;;;1.50;67.60;;;;;;5053672;28;20308;-78
2022/03/03 00:04:31;;;;;;;5.63;5.10;;;1.50;68.20;;;;;;5054188;28;20237;-78
2022/03/03 00:07:00;;;;;;;7.90;5.23;;;1.50;68.20;;;;;;5053769;28;20252;-78
2022/03/03 00:09:28;;;;;;;9.87;6.27;;;1.50;68.20;;;;;;5054020;28;20385;-78
2022/03/03 00:11:58;;;;;;;15.30;6.97;;;1.50;66.70;;;;;;5053255;28;20248;-78
2022/03/03 00:14:26;;;;;;;11.97;5.57;;;1.40;68.90;;;;;;5053351;28;20205;-78
2022/03/03 00:16:54;;;;;;;8.53;6.30;;;1.40;69.50;;;;;;5054163;28;20288;-78
2022/03/03 00:19:23;;;;;;;6.53;5.83;;;1.30;68.50;;;;;;5054028;28;20339;-78
2022/03/03 00:21:51;;;;;;;10.93;6.93;;;1.30;69.60;;;;;;5053711;28;20230;-77
2022/03/03 00:24:20;;;;;;;8.30;6.40;;;1.20;68.70;;;;;;5053353;28;20225;-78
2022/03/03 00:26:48;;;;;;;5.40;4.90;;;1.20;68.40;;;;;;5053436;28;20229;-77
2022/03/03 00:29:18;;;;;;;7.80;6.07;;;1.10;68.20;;;;;;5053636;28;20240;-78
2022/03/03 00:31:46;;;;;;;10.77;5.57;;;1.10;68.10;;;;;;5053726;28;20268;-78
2022/03/03 00:34:15;;;;;;;10.23;6.00;;;1.00;68.10;;;;;;5053602;28;20233;-78
2022/03/03 00:36:43;;;;;;;7.20;6.47;;;1.00;69.90;;;;;;5053664;28;20264;-78
2022/03/03 00:39:12;;;;;;;11.53;7.40;;;1.00;69.20;;;;;;5053338;28;20244;-78
2022/03/03 00:41:40;;;;;;;7.13;5.23;;;1.00;69.00;;;;;;5053101;28;20245;-78
2022/03/03 00:44:09;;;;;;;5.97;5.27;;;1.00;69.50;;;;;;5053307;28;20232;-78
2022/03/03 00:46:40;;;;;;;6.67;5.93;;;1.00;69.30;;;;;;5053457;28;20208;-77
2022/03/03 00:49:09;;;;;;;6.20;4.67;;;1.00;70.90;;;;;;5053473;28;20204;-78
2022/03/03 00:51:37;;;;;;;10.33;5.97;;;1.00;69.70;;;;;;5053150;28;20222;-78
2022/03/03 00:54:05;;;;;;;13.23;6.93;;;1.10;70.80;;;;;;5053358;28;20225;-78
2022/03/03 00:56:34;;;;;;;11.77;6.03;;;1.00;69.80;;;;;;5053439;28;20313;-78
2022/03/03 00:59:02;;;;;;;7.40;5.80;;;1.00;70.20;;;;;;5053184;28;20250;-78
2022/03/03 01:01:31;;;;;;;9.10;6.27;;;1.00;71.10;;;;;;5053072;28;20312;-78
2022/03/03 01:04:01;;;;;;;6.70;5.67;;;1.00;69.70;;;;;;5053153;28;20229;-78
2022/03/03 01:06:29;;;;;;;8.53;5.83;;;1.00;70.30;;;;;;5052986;28;20264;-78
2022/03/03 01:08:57;;;;;;;8.27;5.87;;;0.90;71.40;;;;;;5053284;28;20205;-78
2022/03/03 01:11:26;;;;;;;7.43;5.93;;;0.90;71.00;;;;;;5052463;28;20222;-78
2022/03/03 01:13:54;;;;;;;20.53;6.13;;;0.90;70.00;;;;;;5052306;28;20220;-78
2022/03/03 01:16:23;;;;;;;6.23;5.63;;;0.90;71.40;;;;;;5052076;28;20202;-78
2022/03/03 01:18:51;;;;;;;6.47;5.80;;;0.90;71.40;;;;;;5052843;28;20194;-78
2022/03/03 01:21:21;;;;;;;8.07;5.80;;;0.90;73.10;;;;;;5052904;28;20260;-78
2022/03/03 01:23:49;;;;;;;11.80;6.13;;;0.90;71.20;;;;;;5052981;28;20285;-78
2022/03/03 01:26:18;;;;;;;6.13;5.47;;;0.90;72.00;;;;;;5054324;28;20205;-78
2022/03/03 01:28:47;;;;;;;10.63;6.30;;;0.90;71.20;;;;;;5057161;28;20251;-78
2022/03/03 01:31:15;;;;;;;11.23;6.93;;;0.90;71.70;;;;;;5056884;28;20260;-78
2022/03/03 01:33:43;;;;;;;5.53;5.03;;;0.90;70.80;;;;;;5056833;28;20201;-78
2022/03/03 01:36:12;;;;;;;8.97;5.80;;;0.80;72.20;;;;;;5056924;28;20297;-78
2022/03/03 01:38:41;;;;;;;22.57;6.90;;;0.80;72.30;;;;;;5056716;28;20237;-78
2022/03/03 01:41:10;;;;;;;10.47;6.23;;;0.80;71.70;;;;;;5056786;28;20231;-78
2022/03/03 01:43:39;;;;;;;9.13;6.13;;;0.80;72.70;;;;;;5056429;28;20285;-78
2022/03/03 01:46:07;;;;;;;9.67;6.90;;;0.80;73.40;;;;;;5056760;28;20244;-78
2022/03/03 01:48:36;;;;;;;9.07;6.83;;;0.70;72.70;;;;;;5056938;28;20233;-78
2022/03/03 01:51:04;;;;;;;7.87;5.93;;;0.70;76.00;;;;;;5056945;28;20287;-78
2022/03/03 01:53:32;;;;;;;6.80;5.63;;;0.70;74.50;;;;;;5056444;28;20301;-78
2022/03/03 01:56:02;;;;;;;8.77;6.07;;;0.60;74.00;;;;;;5056491;28;20237;-78
2022/03/03 01:58:31;;;;;;;9.10;6.27;;;0.60;74.50;;;;;;5056489;28;20269;-77
2022/03/03 02:01:00;;;;;;;7.50;5.60;;;0.50;74.70;;;;;;5055994;28;20260;-78
2022/03/03 02:03:29;;;;;;;15.83;6.23;;;0.50;75.40;;;;;;5056617;28;20245;-78
2022/03/03 02:05:58;;;;;;;9.17;6.30;;;0.50;75.00;;;;;;5056440;28;20201;-78
2022/03/03 02:08:26;;;;;;;8.70;6.13;;;0.40;74.20;;;;;;5056659;28;20237;-78
2022/03/03 02:10:55;;;;;;;5.77;5.13;;;0.40;74.60;;;;;;5056188;28;20253;-78
2022/03/03 02:13:25;;;;;;;7.53;5.47;;;0.40;74.50;;;;;;5055876;28;20206;-78
2022/03/03 02:15:54;;;;;;;7.90;5.43;;;0.40;74.30;;;;;;5056285;28;20288;-78
2022/03/03 02:18:23;;;;;;;5.63;5.03;;;0.40;74.50;;;;;;5056264;28;20213;-78
2022/03/03 02:20:53;;;;;;;10.50;6.70;;;0.40;74.30;;;;;;5055490;28;20238;-78
2022/03/03 02:23:21;;;;;;;6.17;5.23;;;0.40;75.30;;;;;;5056179;28;20320;-78
2022/03/03 02:25:51;;;;;;;7.63;6.03;;;0.40;75.00;;;;;;5056110;28;20237;-78
2022/03/03 02:28:19;;;;;;;6.70;5.80;;;0.40;75.60;;;;;;5056078;28;20300;-78
2022/03/03 02:30:47;;;;;;;11.27;7.60;;;0.40;75.50;;;;;;5056058;28;20257;-78
2022/03/03 02:33:16;;;;;;;7.77;6.17;;;0.40;76.20;;;;;;5055739;28;20205;-78
2022/03/03 02:35:44;;;;;;;9.83;6.53;;;0.40;77.20;;;;;;5038995;28;20281;-78
2022/03/03 02:38:13;;;;;;;8.40;5.83;;;0.40;75.30;;;;;;5054050;28;20232;-78
2022/03/03 02:40:42;;;;;;;9.17;6.60;;;0.40;76.40;;;;;;5054287;28;20213;-78
2022/03/03 02:43:10;;;;;;;11.10;7.50;;;0.40;76.80;;;;;;5055666;28;20359;-78
2022/03/03 02:45:39;;;;;;;5.93;5.33;;;0.40;76.80;;;;;;5055647;28;20222;-78
2022/03/03 02:48:07;;;;;;;6.10;5.50;;;0.40;77.30;;;;;;5055904;28;20230;-78
2022/03/03 02:50:35;;;;;;;16.20;7.37;;;0.30;76.50;;;;;;5055697;28;20296;-78
2022/03/03 02:53:04;;;;;;;11.80;6.50;;;0.30;76.80;;;;;;5055807;28;20233;-78
2022/03/03 02:55:34;;;;;;;8.87;5.77;;;0.30;76.50;;;;;;5055701;28;20225;-78
2022/03/03 02:58:05;;;;;;;14.07;7.17;;;0.30;76.80;;;;;;5055475;28;20214;-78
2022/03/03 03:00:39;;;;;;;7.30;6.03;;;0.30;75.90;;;;;;5055022;28;20216;-78
2022/03/03 03:03:07;;;;;;;8.27;7.03;;;0.20;75.80;;;;;;5035776;28;20223;-78
2022/03/03 03:05:36;;;;;;;7.50;6.07;;;0.20;75.90;;;;;;5035480;28;20203;-78
2022/03/03 03:08:05;;;;;;;8.10;6.60;;;0.20;76.50;;;;;;5050746;28;20198;-78
2022/03/03 03:10:35;;;;;;;10.10;6.77;;;0.20;76.40;;;;;;5055175;28;20237;-78
2022/03/03 03:13:04;;;;;;;10.23;6.93;;;0.20;76.90;;;;;;5055339;28;20241;-78
2022/03/03 03:15:33;;;;;;;9.50;6.90;;;0.20;76.40;;;;;;5055072;28;20206;-78
2022/03/03 03:18:09;;;;;;;6.47;5.87;;;0.20;76.70;;;;;;5055181;28;20239;-78
2022/03/03 03:20:38;;;;;;;12.43;7.20;;;0.20;76.10;;;;;;5055043;28;20268;-78
2022/03/03 03:23:06;;;;;;;9.27;6.23;;;0.20;76.50;;;;;;5055335;28;20205;-78
2022/03/03 03:25:37;;;;;;;8.30;6.37;;;0.20;76.20;;;;;;5054658;28;20198;-78
2022/03/03 03:28:06;;;;;;;11.00;7.27;;;0.20;76.40;;;;;;5054588;28;20271;-78
2022/03/03 03:30:35;;;;;;;9.30;7.37;;;0.20;77.30;;;;;;5054789;28;20297;-78
2022/03/03 03:33:03;;;;;;;8.93;6.97;;;0.20;76.60;;;;;;5054607;28;20206;-77
2022/03/03 03:35:32;;;;;;;15.47;8.30;;;0.20;76.20;;;;;;5054654;28;20230;-78
2022/03/03 03:38:01;;;;;;;14.73;6.93;;;0.30;77.00;;;;;;5054715;28;20293;-78
2022/03/03 03:40:29;;;;;;;10.17;7.60;;;0.30;76.50;;;;;;5054400;28;20233;-78
2022/03/03 03:42:59;;;;;;;9.33;7.17;;;0.30;76.70;;;;;;5054627;28;20232;-78
2022/03/03 03:45:27;;;;;;;8.77;6.47;;;0.30;76.20;;;;;;5054142;28;20260;-78
2022/03/03 03:47:56;;;;;;;6.33;5.73;;;0.30;76.80;;;;;;5054491;28;20194;-78
2022/03/03 03:50:24;;;;;;;6.70;6.10;;;0.30;76.90;;;;;;5053395;28;20202;-78
2022/03/03 03:52:53;;;;;;;19.47;7.40;;;0.30;77.10;;;;;;5054255;28;20245;-78
2022/03/03 03:55:21;;;;;;;8.70;7.80;;;0.30;80.30;;;;;;5054884;28;20214;-78
2022/03/03 03:57:49;;;;;;;7.87;7.07;;;0.30;79.00;;;;;;5054301;28;20286;-78
2022/03/03 04:00:19;;;;;;;9.40;6.27;;;0.30;77.10;;;;;;5053010;28;20234;-78
2022/03/03 04:02:48;;;;;;;7.23;6.53;;;0.30;78.70;;;;;;5053255;28;20225;-78
2022/03/03 04:05:16;;;;;;;9.13;6.80;;;0.30;77.60;;;;;;5053798;28;20236;-78
2022/03/03 04:07:45;;;;;;;8.43;6.30;;;0.30;79.40;;;;;;5054037;28;20237;-78
2022/03/03 04:10:13;;;;;;;9.37;7.33;;;0.20;77.80;;;;;;5054120;28;20285;-77
2022/03/03 04:12:42;;;;;;;9.20;7.40;;;0.20;79.50;;;;;;5053985;28;20229;-77
2022/03/03 04:15:11;;;;;;;7.30;6.43;;;0.20;80.10;;;;;;5053779;28;20217;-77
2022/03/03 04:17:42;;;;;;;27.30;6.17;;;0.10;80.10;;;;;;5054087;28;20210;-78
2022/03/03 04:20:11;;;;;;;8.40;7.00;;;0.10;80.70;;;;;;5054000;28;20232;-78
2022/03/03 04:22:40;;;;;;;7.87;6.30;;;0.10;80.70;;;;;;5053519;28;20256;-78
2022/03/03 04:25:10;;;;;;;9.53;6.93;;;0.00;80.20;;;;;;5053821;28;20305;-78
2022/03/03 04:27:47;;;;;;;10.63;6.70;;;0.00;81.30;;;;;;5053864;28;20229;-78
2022/03/03 04:30:15;;;;;;;9.13;6.17;;;0.00;81.60;;;;;;5053918;28;20232;-78
2022/03/03 04:32:45;;;;;;;9.33;6.87;;;0.00;82.60;;;;;;5053873;28;20225;-78
2022/03/03 04:35:13;;;;;;;8.20;6.70;;;0.00;82.40;;;;;;5053678;28;20233;-78
2022/03/03 04:37:41;;;;;;;8.30;6.33;;;0.00;84.20;;;;;;5053530;28;20232;-78
2022/03/03 04:40:10;;;;;;;8.87;6.37;;;0.00;82.80;;;;;;5053657;28;20214;-78
2022/03/03 04:42:39;;;;;;;10.23;6.33;;;0.00;82.40;;;;;;5053653;28;20213;-77
2022/03/03 04:45:08;;;;;;;7.83;5.63;;;0.00;85.30;;;;;;5053474;28;20245;-77
2022/03/03 04:47:36;;;;;;;12.13;6.70;;;-0.10;85.70;;;;;;5053671;28;20237;-77
2022/03/03 04:50:07;;;;;;;7.50;6.70;;;-0.10;86.30;;;;;;5053480;28;20208;-78
2022/03/03 04:52:36;;;;;;;8.37;6.90;;;-0.10;86.30;;;;;;5053340;28;20253;-77
2022/03/03 04:55:05;;;;;;;8.17;6.13;;;-0.10;87.10;;;;;;5053463;28;20221;-78
2022/03/03 04:57:34;;;;;;;12.40;7.23;;;-0.20;87.80;;;;;;5053392;28;20232;-78
2022/03/03 05:00:04;;;;;;;9.30;7.00;;;-0.20;88.90;;;;;;5053323;28;20244;-78
2022/03/03 05:02:33;;;;;;;9.03;6.27;;;-0.30;88.30;;;;;;5053169;28;20221;-78
2022/03/03 05:05:02;;;;;;;7.80;6.40;;;-0.30;88.70;;;;;;5053210;28;20386;-77
2022/03/03 05:07:33;;;;;;;9.80;7.50;;;-0.40;89.40;;;;;;5053374;28;20228;-77
2022/03/03 05:10:01;;;;;;;9.53;7.07;;;-0.40;90.40;;;;;;5053167;28;20229;-77
2022/03/03 05:12:31;;;;;;;7.67;6.30;;;-0.40;90.60;;;;;;5053012;28;20229;-77
2022/03/03 05:14:59;;;;;;;10.23;6.63;;;-0.40;90.80;;;;;;5053228;28;20281;-77
2022/03/03 05:17:27;;;;;;;10.20;6.90;;;-0.40;91.30;;;;;;5053159;28;20400;-78
2022/03/03 05:19:57;;;;;;;9.63;6.27;;;-0.40;91.00;;;;;;5052758;28;20201;-78
2022/03/03 05:22:26;;;;;;;10.60;7.10;;;-0.40;91.60;;;;;;5052910;28;20221;-78
2022/03/03 05:24:56;;;;;;;7.17;6.37;;;-0.40;91.90;;;;;;5052513;28;20237;-78
2022/03/03 05:27:24;;;;;;;18.37;7.37;;;-0.40;92.50;;;;;;5052187;28;20210;-77
2022/03/03 05:29:52;;;;;;;8.80;7.00;;;-0.40;92.10;;;;;;5033362;28;20234;-77
2022/03/03 05:32:21;;;;;;;6.37;5.57;;;-0.40;92.10;;;;;;5032903;28;20222;-78
2022/03/03 05:34:49;;;;;;;8.03;6.73;;;-0.40;93.20;;;;;;5033328;28;20226;-78
2022/03/03 05:37:21;;;;;;;7.30;6.40;;;-0.40;93.20;;;;;;5033355;28;20234;-77
2022/03/03 05:39:50;;;;;;;6.27;5.67;;;-0.50;93.50;;;;;;5033393;28;20226;-78
2022/03/03 05:42:20;;;;;;;12.80;5.97;;;-0.50;93.90;;;;;;5032923;28;20230;-78
2022/03/03 05:44:49;;;;;;;8.80;6.83;;;-0.50;94.10;;;;;;5032773;28;20223;-77
2022/03/03 05:47:19;;;;;;;15.17;7.50;;;-0.50;93.50;;;;;;5032996;28;20241;-77
2022/03/03 05:49:50;;;;;;;8.27;6.37;;;-0.40;93.50;;;;;;5033269;28;20210;-77
2022/03/03 05:52:19;;;;;;;11.60;7.43;;;-0.40;93.40;;;;;;5036975;28;20230;-77
2022/03/03 05:54:47;;;;;;;8.70;7.50;;;-0.40;93.50;;;;;;5052416;28;20233;-77
2022/03/03 05:57:22;;;;;;;10.23;7.13;;;-0.40;93.30;;;;;;5053015;28;20257;-78
2022/03/03 05:59:52;;;;;;;10.37;7.20;;;-0.40;93.50;;;;;;5052308;28;20220;-78
2022/03/03 06:02:21;;;;;;;9.50;7.23;;;-0.40;94.70;;;;;;5052657;28;20221;-77
2022/03/03 06:04:49;;;;;;;11.20;6.70;;;-0.40;94.30;;;;;;5053052;28;20226;-78
2022/03/03 06:07:25;;;;;;;5.80;5.30;;;-0.30;94.40;;;;;;5052539;28;20245;-78
2022/03/03 06:09:57;;;;;;;9.37;6.80;;;-0.30;94.40;;;;;;5052854;28;20269;-78
2022/03/03 06:12:41;;;;;;;12.57;8.30;;;-0.30;95.40;;;;;;5052230;28;20229;-78
2022/03/03 06:15:13;;;;;;;9.67;7.17;;;-0.20;95.90;;;;;;5056119;28;20202;-78
2022/03/03 06:17:44;;;;;;;9.47;7.47;;;-0.20;95.70;;;;;;5056091;28;20222;-78
2022/03/03 06:20:13;;;;;;;13.63;8.23;;;-0.10;96.00;;;;;;5056505;28;20206;-78
2022/03/03 06:22:42;;;;;;;10.17;7.07;;;-0.10;94.30;;;;;;5056018;28;20245;-82
2022/03/03 06:25:11;;;;;;;9.07;6.67;;;-0.10;94.70;;;;;;5055357;28;20297;-79
2022/03/03 06:27:41;;;;;;;8.50;7.37;;;0.00;94.30;;;;;;5055993;28;20281;-79
2022/03/03 06:30:10;;;;;;;19.23;7.23;;;0.00;94.70;;;;;;5055774;28;20232;-84
2022/03/03 06:32:38;;;;;;;7.40;6.50;;;0.00;94.30;;;;;;5055801;28;20229;-80
2022/03/03 06:35:07;;;;;;;11.17;7.30;;;0.10;94.00;;;;;;5055903;28;20322;-80
2022/03/03 06:37:35;;;;;;;8.20;6.80;;;0.10;93.90;;;;;;5039024;28;20221;-80
2022/03/03 06:40:05;;;;;;;9.23;7.17;;;0.10;94.30;;;;;;5055757;28;20198;-80
2022/03/03 06:43:01;;;;;;;11.27;8.17;;;0.20;93.80;;;;;;5056509;28;20305;-79
2022/03/03 06:45:30;;;;;;;8.33;6.90;;;0.20;93.80;;;;;;5055576;28;20281;-79
2022/03/03 06:48:02;;;;;;;10.93;7.53;;;0.20;93.50;;;;;;5051482;28;20210;-79
2022/03/03 06:50:30;;;;;;;11.63;7.97;;;0.30;93.20;;;;;;5054036;28;20282;-79
2022/03/03 06:52:58;;;;;;;9.63;7.00;;;0.30;92.50;;;;;;5055439;28;20225;-81
2022/03/03 06:55:27;;;;;;;9.10;6.97;;;0.30;92.80;;;;;;5055643;28;20221;-80
2022/03/03 06:57:58;;;;;;;10.67;7.47;;;0.30;92.30;;;;;;5055635;28;20276;-79
2022/03/03 07:00:29;;;;;;;7.50;6.80;;;0.40;92.40;;;;;;5055069;28;20202;-79
2022/03/03 07:02:57;;;;;;;7.27;6.57;;;0.40;91.50;;;;;;5055822;28;20228;-79
2022/03/03 07:05:27;;;;;;;11.83;7.13;;;0.50;92.10;;;;;;5054895;28;20226;-81
2022/03/03 07:07:56;;;;;;;9.83;8.13;;;0.50;91.90;;;;;;5055167;28;20205;-78
2022/03/03 07:10:25;;;;;;;11.50;8.53;;;0.60;91.80;;;;;;5055283;28;20253;-79
2022/03/03 07:12:55;;;;;;;11.03;8.43;;;0.60;92.60;;;;;;5054888;28;20198;-83
2022/03/03 07:15:25;;;;;;;12.97;9.70;;;0.70;93.00;;;;;;5054711;28;20228;-83
2022/03/03 07:18:00;;;;;;;12.03;9.43;;;0.70;92.80;;;;;;5055068;28;20209;-80
2022/03/03 07:20:31;;;;;;;11.77;9.30;;;0.70;92.40;;;;;;5054741;28;20297;-79
2022/03/03 07:23:05;;;;;;;11.67;8.43;;;0.80;92.60;;;;;;5034958;28;20221;-77
2022/03/03 07:25:41;;;;;;;10.93;8.17;;;0.90;92.40;;;;;;5034125;28;20221;-77
2022/03/03 07:28:11;;;;;;;14.50;9.00;;;0.90;92.50;;;;;;5032184;28;20277;-77
2022/03/03 07:30:43;;;;;;;13.43;9.27;;;1.00;92.60;;;;;;5032443;28;20249;-77
2022/03/03 07:33:17;;;;;;;18.07;9.87;;;1.10;92.60;;;;;;5032550;28;20226;-77
2022/03/03 07:35:49;;;;;;;14.47;8.13;;;1.20;92.70;;;;;;5031835;28;20332;-77
2022/03/03 07:38:21;;;;;;;12.73;8.13;;;1.20;92.30;;;;;;5033600;28;20233;-78
2022/03/03 07:40:50;;;;;;;11.07;8.57;;;1.30;92.30;;;;;;5033806;28;20317;-77
2022/03/03 07:43:19;;;;;;;15.47;8.70;;;1.40;92.10;;;;;;5033826;28;20234;-77
2022/03/03 07:45:47;;;;;;;13.63;9.57;;;1.60;92.20;;;;;;5034098;28;20305;-77
2022/03/03 07:48:17;;;;;;;11.83;9.07;;;1.70;91.70;;;;;;5033719;28;20207;-77
2022/03/03 07:50:45;;;;;;;12.97;8.27;;;1.90;90.90;;;;;;5033477;28;20256;-77
2022/03/03 07:53:14;;;;;;;14.00;9.70;;;1.90;91.20;;;;;;5033415;28;20238;-77
2022/03/03 07:55:45;;;;;;;21.63;8.37;;;2.00;90.90;;;;;;5033310;28;20210;-77
2022/03/03 07:58:15;;;;;;;7.20;6.47;;;2.20;90.50;;;;;;5033455;28;20233;-77
2022/03/03 08:00:47;;;;;;;16.15;8.77;;;2.30;88.70;;;;;;5033110;28;20246;-77
2022/03/03 08:03:19;;;;;;;12.02;7.45;;;2.60;84.40;;;;;;5033621;28;20210;-77
2022/03/03 08:05:51;;;;;;;9.77;7.13;;;2.90;80.50;;;;;;5033452;28;20218;-77
2022/03/03 08:08:22;;;;;;;9.38;7.43;;;3.10;79.60;;;;;;5033254;28;20289;-85
2022/03/03 08:10:56;;;;;;;11.93;7.72;;;3.30;77.20;;;;;;5033097;28;20250;-85
2022/03/03 08:13:27;;;;;;;15.43;8.10;;;3.40;76.30;;;;;;5033387;28;20237;-85
2022/03/03 08:15:56;;;;;;;9.90;7.15;;;3.40;74.30;;;;;;5033615;28;20219;-85
2022/03/03 08:18:30;;;;;;;7.90;7.10;;;3.50;75.10;;;;;;5032924;28;20214;-85
2022/03/03 08:21:01;;;;;;;19.50;7.40;;;3.50;73.80;;;;;;5032546;28;20321;-84
2022/03/03 08:23:30;;;;;;;8.45;6.65;;;3.60;73.90;;;;;;5032945;28;20378;-84
2022/03/03 08:25:59;;;;;;;15.38;8.10;;;3.60;73.30;;;;;;5032866;28;20299;-85
2022/03/03 08:28:31;;;;;;;7.68;6.38;;;3.70;72.30;;;;;;5032895;28;20211;-84
2022/03/03 08:31:01;;;;;;;7.43;5.60;;;3.80;71.20;;;;;;5032807;28;20256;-77
2022/03/03 08:33:41;;;;;;;15.80;8.05;;;3.90;71.30;;;;;;5032765;28;20212;-77
2022/03/03 08:36:19;;;;;;;8.73;6.60;;;4.00;71.40;;;;;;5032145;28;20202;-77
2022/03/03 08:38:51;;;;;;;11.50;7.28;;;4.10;71.20;;;;;;5032912;28;20218;-77
2022/03/03 08:41:22;;;;;;;9.13;6.38;;;4.20;70.10;;;;;;5032325;28;20276;-77
2022/03/03 08:43:53;;;;;;;9.98;7.60;;;4.40;71.20;;;;;;5033071;28;20264;-77
2022/03/03 08:46:25;;;;;;;7.63;6.57;;;4.60;69.80;;;;;;5032482;28;20309;-77
2022/03/03 08:48:59;;;;;;;24.75;8.15;;;4.70;69.60;;;;;;5032562;28;20202;-77
2022/03/03 08:51:29;;;;;;;11.68;8.00;;;4.80;70.90;;;;;;5032511;28;20309;-77
2022/03/03 08:53:58;;;;;;;14.63;8.40;;;5.00;70.80;;;;;;5032733;28;20302;-77
2022/03/03 08:56:26;;;;;;;8.10;6.90;;;5.10;69.10;;;;;;5032556;28;20249;-77
2022/03/03 08:58:55;;;;;;;8.73;7.28;;;5.30;68.80;;;;;;5032273;28;20288;-77
2022/03/03 09:01:24;;;;;;;17.75;7.32;;;5.50;67.90;;;;;;5032188;28;20309;-77
2022/03/03 09:03:52;;;;;;;7.88;7.07;;;5.70;72.50;;;;;;5032146;28;20234;-78
2022/03/03 09:06:22;;;;;;;9.63;6.90;;;6.10;67.70;;;;;;5032008;28;20253;-77
2022/03/03 09:08:50;;;;;;;6.85;6.15;;;6.20;62.30;;;;;;5031748;28;20269;-77
2022/03/03 09:11:20;;;;;;;19.60;6.82;;;6.30;62.90;;;;;;5032303;28;20230;-77
2022/03/03 09:13:48;;;;;;;8.40;7.43;;;6.40;62.20;;;;;;5032778;28;20218;-77
2022/03/03 09:16:17;;;;;;;14.07;8.48;;;6.60;64.90;;;;;;5032101;28;20305;-77
2022/03/03 09:18:46;;;;;;;7.65;6.60;;;6.90;63.90;;;;;;5032341;28;20210;-77
2022/03/03 09:21:16;;;;;;;14.10;8.70;;;7.30;64.60;;;;;;5031566;28;20258;-77
2022/03/03 09:23:46;;;;;;;6.82;6.25;;;7.70;61.70;;;;;;5032193;28;20237;-77
2022/03/03 09:26:14;;;;;;;7.50;6.70;;;8.40;60.30;;;;;;5032368;28;20234;-77
2022/03/03 09:28:42;;;;;;;9.90;6.18;;;8.90;58.20;;;;;;5032192;28;20305;-77
2022/03/03 09:31:11;;;;;;;8.60;7.65;;;9.50;58.20;;;;;;5032005;28;20250;-77
2022/03/03 09:33:39;;;;;;;9.07;7.90;;;9.70;58.00;;;;;;5031973;28;20221;-77
2022/03/03 09:36:08;;;;;;;12.73;8.02;;;9.90;56.70;;;;;;5031973;28;20234;-78
2022/03/03 09:38:36;;;;;;;11.00;8.05;;;10.20;55.60;;;;;;5031920;28;20285;-77
2022/03/03 09:41:10;;;;;;;12.27;8.43;;;10.90;54.20;;;;;;5031710;28;20231;-78
2022/03/03 09:43:40;;;;;;;10.48;8.55;;;11.60;52.80;;;;;;5031770;28;20242;-78
2022/03/03 09:46:09;;;;;;;23.15;10.20;;;12.20;51.70;;;;;;5032046;28;20225;-78
2022/03/03 09:48:37;;;;;;;10.10;8.13;;;12.40;50.10;;;;;;5033305;28;20223;-78
2022/03/03 09:51:05;;;;;;;9.70;8.50;;;12.70;48.50;;;;;;5035479;28;20310;-78
2022/03/03 09:53:34;;;;;;;9.32;8.43;;;13.20;48.00;;;;;;5035558;28;20248;-78
2022/03/03 09:56:02;;;;;;;10.98;8.95;;;14.40;48.20;;;;;;5035246;28;20293;-78
2022/03/03 09:58:32;;;;;;;11.13;9.50;;;14.30;45.40;;;;;;5035445;28;20203;-78
2022/03/03 10:01:01;;;;;;;14.20;9.98;;;14.40;46.20;;;;;;5035280;28;20257;-78
2022/03/03 10:03:33;;;;;;;20.42;9.13;;;14.40;45.30;;;;;;5035493;28;20214;-78
2022/03/03 10:06:02;;;;;;;10.13;9.13;;;14.10;44.70;;;;;;5035271;28;20206;-77
2022/03/03 10:08:38;;;;;;;15.82;10.20;;;13.50;45.60;;;;;;5035513;28;20254;-77
2022/03/03 10:11:08;;;;;;;10.45;9.00;;;12.90;46.80;;;;;;5043687;28;20297;-77
2022/03/03 10:14:01;;;;;;;15.50;10.02;;;12.50;46.80;;;;;;5052664;28;20289;-77
2022/03/03 10:16:48;;;;;;;10.80;9.23;;;12.20;47.50;;;;;;5055302;28;20256;-77
2022/03/03 10:19:50;;;;;;;9.80;8.07;;;11.70;47.80;;;;;;5053354;28;20204;-78
2022/03/03 10:22:39;;;;;;;11.82;8.13;;;11.40;48.20;;;;;;5055565;28;20221;-77
2022/03/03 10:25:09;;;;;;;18.52;9.15;;;11.10;49.00;;;;;;5035803;28;20211;-77
2022/03/03 10:27:38;;;;;;;10.98;8.82;;;11.10;48.90;;;;;;5035579;28;20286;-78
2022/03/03 10:30:11;;;;;;;10.80;8.40;;;11.10;49.20;;;;;;5035766;28;20234;-77
2022/03/03 10:33:14;;;;;;;10.38;7.95;;;11.10;48.90;;;;;;5055511;28;20245;-77
2022/03/03 10:36:03;;;;;;;12.68;7.75;;;11.30;48.70;;;;;;5055427;28;20220;-78
2022/03/03 10:38:35;;;;;;;13.23;8.00;;;11.70;48.00;;;;;;5055288;28;20232;-78
2022/03/03 10:41:03;;;;;;;13.63;8.80;;;12.00;47.80;;;;;;5055252;28;20266;-78
2022/03/03 10:43:47;;;;;;;10.43;8.15;;;12.30;48.40;;;;;;5055368;28;20213;-78
2022/03/03 10:46:28;;;;;;;9.30;8.23;;;12.90;45.80;;;;;;5055407;28;20212;-78
2022/03/03 10:48:56;;;;;;;11.98;8.35;;;13.50;44.60;;;;;;5054714;28;20237;-78
2022/03/03 10:51:33;;;;;;;11.07;8.30;;;13.80;44.80;;;;;;5054915;28;20244;-78
2022/03/03 10:54:04;;;;;;;11.38;7.90;;;14.00;45.00;;;;;;5055159;28;20382;-78
2022/03/03 10:56:52;;;;;;;9.60;8.60;;;14.00;43.80;;;;;;5054572;28;20198;-78
2022/03/03 10:59:24;;;;;;;13.45;8.10;;;13.80;44.50;;;;;;5054502;28;20225;-78
2022/03/03 11:01:54;;;;;;;8.25;7.45;;;13.80;44.10;;;;;;5055026;28;20252;-77
2022/03/03 11:04:24;;;;;;;9.00;7.55;;;14.10;43.40;;;;;;5053919;28;20201;-78
2022/03/03 11:06:54;;;;;;;24.20;6.60;;;14.40;42.60;;;;;;5054643;28;20236;-78
2022/03/03 11:09:37;;;;;;;11.00;7.15;;;15.30;39.90;;;;;;5053068;28;20311;-78
2022/03/03 11:12:25;;;;;;;8.32;7.03;;;15.40;39.70;;;;;;5042411;28;20226;-78
2022/03/03 11:14:55;;;;;;;8.75;7.65;;;15.70;40.60;;;;;;5053906;28;20233;-78
2022/03/03 11:17:25;;;;;;;9.10;8.00;;;15.80;40.40;;;;;;5054409;28;20214;-78
2022/03/03 11:19:58;;;;;;;9.98;8.00;;;15.70;40.60;;;;;;5054439;28;20226;-78
2022/03/03 11:22:28;;;;;;;12.57;9.30;;;15.70;41.40;;;;;;5054483;28;20228;-78
2022/03/03 11:24:59;;;;;;;9.68;8.07;;;16.00;39.80;;;;;;5054531;28;20241;-78
2022/03/03 11:27:38;;;;;;;9.60;6.95;;;16.00;39.20;;;;;;5054314;28;20228;-78
2022/03/03 11:30:20;;;;;;;9.48;8.48;;;16.00;40.40;;;;;;5054316;28;20251;-78
2022/03/03 11:33:26;;;;;;;9.73;8.70;;;16.00;39.00;;;;;;5053918;28;20255;-78
2022/03/03 11:35:59;;;;;;;7.93;7.10;;;15.70;40.00;;;;;;5054513;28;20284;-78
2022/03/03 11:38:29;;;;;;;18.30;8.80;;;15.40;39.30;;;;;;5054245;28;20239;-78
2022/03/03 11:40:59;;;;;;;10.02;8.35;;;15.50;39.90;;;;;;5054174;28;20245;-78
2022/03/03 11:43:30;;;;;;;8.85;8.10;;;15.50;39.90;;;;;;5052372;28;20232;-78
2022/03/03 11:46:00;;;;;;;12.50;9.30;;;15.40;39.80;;;;;;5053292;28;20241;-78
2022/03/03 11:48:40;;;;;;;9.32;7.57;;;15.40;40.50;;;;;;5053754;28;20304;-78
2022/03/03 11:51:33;;;;;;;10.32;7.18;;;15.50;40.10;;;;;;5053366;28;20253;-78
2022/03/03 11:54:26;;;;;;;10.20;8.05;;;15.70;37.90;;;;;;5053409;28;20221;-78
2022/03/03 11:57:21;;;;;;;7.28;6.65;;;16.30;35.90;;;;;;5052889;28;20210;-78
2022/03/03 11:59:50;;;;;;;10.68;7.10;;;16.60;34.60;;;;;;5054076;28;20197;-77
2022/03/03 12:02:20;;;;;;;13.50;6.90;;;17.00;34.30;;;;;;5051939;28;20313;-80
2022/03/03 12:05:28;;;;;;;7.97;6.85;;;16.50;34.30;;;;;;5053923;28;20213;-80
2022/03/03 12:07:59;;;;;;;13.05;5.95;;;16.00;34.70;;;;;;5032916;28;20203;-80
2022/03/03 12:10:27;;;;;;;8.70;6.45;;;15.10;33.30;;;;;;5047851;28;20288;-80
2022/03/03 12:13:26;;;;;;;8.05;6.07;;;14.80;34.70;;;;;;5053467;28;20241;-80
2022/03/03 12:16:25;;;;;;;8.57;6.28;;;14.90;35.10;;;;;;5053807;28;20201;-80
2022/03/03 12:19:08;;;;;;;11.85;6.85;;;15.40;34.10;;;;;;5053873;28;20197;-79
2022/03/03 12:21:41;;;;;;;13.02;6.22;;;15.70;33.60;;;;;;5053470;28;20283;-79
2022/03/03 12:24:31;;;;;;;8.68;6.88;;;15.70;34.30;;;;;;5053355;28;20281;-80
2022/03/03 12:27:16;;;;;;;7.93;7.10;;;16.00;32.60;;;;;;5053660;28;20206;-80
2022/03/03 12:29:57;;;;;;;10.35;7.53;;;16.30;33.90;;;;;;5033392;28;20313;-80
2022/03/03 12:32:45;;;;;;;7.80;5.97;;;16.20;33.90;;;;;;5050632;28;20232;-80
2022/03/03 12:35:29;;;;;;;6.85;5.80;;;16.30;32.60;;;;;;5053311;28;20205;-79
2022/03/03 12:38:02;;;;;;;6.82;6.13;;;16.40;30.80;;;;;;5053383;28;20209;-79
2022/03/03 12:40:31;;;;;;;8.93;6.20;;;16.50;32.40;;;;;;5053201;28;20206;-79
2022/03/03 12:42:59;;;;;;;5.65;5.20;;;16.80;32.10;;;;;;5052602;28;20201;-80
2022/03/03 12:45:31;;;;;;;7.10;6.35;;;16.90;30.80;;;;;;5053297;28;20213;-80
2022/03/03 12:47:59;;;;;;;9.05;6.50;;;17.30;31.90;;;;;;5053164;28;20229;-80
2022/03/03 12:50:29;;;;;;;10.73;6.93;;;17.60;32.20;;;;;;5052120;28;20230;-80
2022/03/03 12:53:02;;;;;;;7.93;7.13;;;17.30;32.50;;;;;;5053578;28;20214;-80
2022/03/03 12:55:34;;;;;;;8.02;7.13;;;16.80;33.00;;;;;;5052628;28;20282;-80
2022/03/03 12:58:04;;;;;;;7.22;6.43;;;16.40;31.70;;;;;;5052808;28;20240;-80
2022/03/03 13:00:35;;;;;;;11.15;7.28;;;16.20;31.50;;;;;;5052705;28;20197;-80
2022/03/03 13:03:04;;;;;;;9.52;7.43;;;16.10;32.40;;;;;;5052839;28;20206;-80
2022/03/03 13:05:41;;;;;;;8.27;7.47;;;15.70;33.80;;;;;;5052589;28;20201;-79
2022/03/03 13:08:22;;;;;;;13.90;8.60;;;15.40;32.80;;;;;;5050998;28;20271;-80
2022/03/03 13:10:52;;;;;;;10.30;8.07;;;14.90;33.10;;;;;;5052807;28;20217;-79